Time;durP1;ratioP1;P1;durP2;ratioP2;P2;SDS_P1;SDS_P2;PMS_P1;PMS_P2;Temp;Humidity;BMP_temperature;BMP_pressure;BME280_temperature;BME280_humidity;BME280_pressure;Samples;Min_cycle;Max_cycle;Signal;HPM_P1;HPM_P2
2022/02/06 00:00:36;;;;;;;;;;;;;;;;;;5075740;28;20381;-69
2022/02/06 00:03:03;;;;;;;;;;;;;;;;;;5076587;28;19958;-70
2022/02/06 00:05:30;;;;;;;;;;;;;;;;;;5075727;28;19939;-71
2022/02/06 00:07:57;;;;;;;;;;;;;;;;;;5075051;28;19905;-71
2022/02/06 00:10:23;;;;;;;;;;;;;;;;;;5074016;28;19904;-70
2022/02/06 00:12:49;;;;;;;;;;;;;;;;;;5081939;28;19908;-71
2022/02/06 00:15:18;;;;;;;;;;;;;;;;;;5090704;28;20423;-70
2022/02/06 00:17:45;;;;;;;;;;;;;;;;;;5083931;28;20078;-70
2022/02/06 00:20:12;;;;;;;;;;;;;;;;;;5070084;28;19912;-70
2022/02/06 00:22:47;;;;;;;;;;;;;;;;;;5075181;28;19957;-70
2022/02/06 00:25:21;;;;;;;;;;;;;;;;;;5074986;28;19977;-71
2022/02/06 00:30:25;;;;;;;;;;;;;;;;;;5075142;28;19904;-68
2022/02/06 00:33:02;;;;;;;;;;;;;;;;;;5056544;28;20350;-68
2022/02/06 00:43:11;;;;;;;;;;;;;;;;;;5091020;28;20351;-70
2022/02/06 00:45:37;;;;;;;;;;;;;;;;;;5094699;28;19904;-69
2022/02/06 00:48:04;;;;;;;;;;;;;;;;;;5094760;28;19900;-67
2022/02/06 00:50:31;;;;;;;;;;;;;;;;;;5095224;28;19939;-67
2022/02/06 00:53:04;;;;;;;;;;;;;;;;;;5094848;28;20370;-66
2022/02/06 00:55:31;;;;;;;;;;;;;;;;;;5092927;28;20354;-67
2022/02/06 00:57:57;;;;;;;;;;;;;;;;;;5083119;28;19919;-67
2022/02/06 01:00:23;;;;;;;;;;;;;;;;;;5069130;28;19950;-69
2022/02/06 01:02:49;;;;;;;;;;;;;;;;;;5069718;28;20367;-68
2022/02/06 01:05:16;;;;;;;;;;;;;;;;;;5070079;28;19950;-68
2022/02/06 01:07:42;;;;;;;;;;;;;;;;;;5074393;28;19904;-68
2022/02/06 01:10:08;;;;;;;;;;;;;;;;;;5074343;28;19919;-69
2022/02/06 01:12:37;;;;;;;;;;;;;;;;;;5079711;28;19912;-68
2022/02/06 01:15:08;;;;;;;;;;;;;;;;;;5074487;28;19904;-70
2022/02/06 01:17:43;;;;;;;;;;;;;;;;;;5072938;28;19904;-69
2022/02/06 01:20:18;;;;;;;;;;;;;;;;;;5072429;28;19911;-70
2022/02/06 01:28:25;;;;;;;;;;;;;;;;;;5065740;28;19912;-72
2022/02/06 01:31:00;;;;;;;;;;;;;;;;;;5094102;28;19998;-72
2022/02/06 01:33:32;;;;;;;;;;;;;;;;;;5093505;28;19943;-72
2022/02/06 01:38:31;;;;;;;;;;;;;;;;;;5093986;28;19908;-72
2022/02/06 01:41:04;;;;;;;;;;;;;;;;;;5090786;28;19915;-72
2022/02/06 01:43:39;;;;;;;;;;;;;;;;;;5088695;28;19911;-72
2022/02/06 01:46:21;;;;;;;;;;;;;;;;;;5088591;28;19904;-72
2022/02/06 02:02:53;;;;;;;;;;;;;;;;;;5091507;28;19907;-71
2022/02/06 02:11:19;;;;;;;;;;;;;;;;;;5088304;28;20354;-71
2022/02/06 02:13:58;;;;;;;;;;;;;;;;;;5078720;28;19908;-71
2022/02/06 02:48:24;;;;;;;;;;;;;;;;;;5068077;28;19946;-71
2022/02/06 02:50:57;;;;;;;;;;;;;;;;;;5067229;28;19904;-72
2022/02/06 02:58:30;;;;;;;;;;;;;;;;;;5071574;28;19904;-71
2022/02/06 03:03:28;;;;;;;;;;;;;;;;;;5089478;28;19912;-71
2022/02/06 03:05:56;;;;;;;;;;;;;;;;;;5092918;28;19939;-71
2022/02/06 03:08:22;;;;;;;;;;;;;;;;;;5081275;28;19981;-71
2022/02/06 03:10:51;;;;;;;;;;;;;;;;;;5087556;28;20020;-71
2022/02/06 03:13:20;;;;;;;;;;;;;;;;;;5087637;28;19958;-71
2022/02/06 03:15:59;;;;;;;;;;;;;;;;;;5087728;28;19904;-71
2022/02/06 03:18:30;;;;;;;;;;;;;;;;;;5087425;28;20434;-71
2022/02/06 03:20:56;;;;;;;;;;;;;;;;;;5092413;28;19908;-71
2022/02/06 03:23:24;;;;;;;;;;;;;;;;;;5092501;28;19904;-71
2022/02/06 03:25:53;;;;;;;;;;;;;;;;;;5076737;28;20397;-71
2022/02/06 03:28:19;;;;;;;;;;;;;;;;;;5080956;28;19916;-71
2022/02/06 03:30:50;;;;;;;;;;;;;;;;;;5071980;28;19935;-71
2022/02/06 03:33:16;;;;;;;;;;;;;;;;;;5085401;28;19970;-71
2022/02/06 03:35:42;;;;;;;;;;;;;;;;;;5087392;28;20262;-67
2022/02/06 03:38:08;;;;;;;;;;;;;;;;;;5087373;28;20244;-64
2022/02/06 03:40:53;;;;;;;;;;;;;;;;;;5086562;28;20369;-65
2022/02/06 03:43:32;;;;;;;;;;;;;;;;;;5072103;28;20374;-68
2022/02/06 03:46:07;;;;;;;;;;;;;;;;;;5075601;28;19904;-70
2022/02/06 03:48:53;;;;;;;;;;;;;;;;;;5075831;28;20318;-69
2022/02/06 03:51:22;;;;;;;;;;;;;;;;;;5076957;28;19911;-70
2022/02/06 03:53:50;;;;;;;;;;;;;;;;;;5091719;28;19908;-69
2022/02/06 03:56:16;;;;;;;;;;;;;;;;;;5086056;28;20266;-69
2022/02/06 03:58:42;;;;;;;;;;;;;;;;;;5070725;28;19904;-68
2022/02/06 04:01:08;;;;;;;;;;;;;;;;;;5070602;28;20435;-68
2022/02/06 04:03:35;;;;;;;;;;;;;;;;;;5071283;28;19909;-67
2022/02/06 04:06:01;;;;;;;;;;;;;;;;;;5075338;28;19911;-70
2022/02/06 04:08:29;;;;;;;;;;;;;;;;;;5075312;28;20423;-69
2022/02/06 04:10:57;;;;;;;;;;;;;;;;;;5075439;28;19908;-70
2022/02/06 04:13:25;;;;;;;;;;;;;;;;;;5075193;28;19911;-71
2022/02/06 04:15:58;;;;;;;;;;;;;;;;;;5074017;28;20367;-72
2022/02/06 04:18:41;;;;;;;;;;;;;;;;;;5069742;28;19911;-71
2022/02/06 04:21:07;;;;;;;;;;;;;;;;;;5070308;28;19904;-71
2022/02/06 04:23:33;;;;;;;;;;;;;;;;;;5070065;28;20074;-68
2022/02/06 04:25:59;;;;;;;;;;;;;;;;;;5086295;28;19912;-71
2022/02/06 04:28:26;;;;;;;;;;;;;;;;;;5095313;28;19938;-71
2022/02/06 04:30:52;;;;;;;;;;;;;;;;;;5094896;28;20342;-70
2022/02/06 04:33:19;;;;;;;;;;;;;;;;;;5095453;28;19904;-71
2022/02/06 04:35:48;;;;;;;;;;;;;;;;;;5093135;28;19930;-72
2022/02/06 04:43:42;;;;;;;;;;;;;;;;;;5090067;28;20347;-67
2022/02/06 04:51:42;;;;;;;;;;;;;;;;;;5094837;28;20343;-71
2022/02/06 05:17:57;;;;;;;;;;;;;;;;;;5094044;28;20382;-72
2022/02/06 05:23:22;;;;;;;;;;;;;;;;;;5071473;28;19911;-71
2022/02/06 05:28:51;;;;;;;;;;;;;;;;;;5068583;28;20336;-71
2022/02/06 05:31:33;;;;;;;;;;;;;;;;;;5068924;28;19904;-72
2022/02/06 05:33:59;;;;;;;;;;;;;;;;;;5072768;28;19931;-71
2022/02/06 05:36:25;;;;;;;;;;;;;;;;;;5073781;28;19904;-71
2022/02/06 05:38:51;;;;;;;;;;;;;;;;;;5073700;28;19987;-71
2022/02/06 05:41:18;;;;;;;;;;;;;;;;;;5089732;28;19908;-71
2022/02/06 05:43:44;;;;;;;;;;;;;;;;;;5093480;28;19911;-71
2022/02/06 05:46:10;;;;;;;;;;;;;;;;;;5089563;28;20570;-71
2022/02/06 05:48:36;;;;;;;;;;;;;;;;;;5088622;28;20432;-71
2022/02/06 05:51:03;;;;;;;;;;;;;;;;;;5088610;28;19904;-70
2022/02/06 05:53:29;;;;;;;;;;;;;;;;;;5088362;28;19990;-71
2022/02/06 05:55:55;;;;;;;;;;;;;;;;;;5091947;28;19938;-71
2022/02/06 05:58:21;;;;;;;;;;;;;;;;;;5093193;28;19904;-71
2022/02/06 06:00:48;;;;;;;;;;;;;;;;;;5091608;28;19908;-71
2022/02/06 06:03:14;;;;;;;;;;;;;;;;;;5093597;28;19912;-71
2022/02/06 06:05:40;;;;;;;;;;;;;;;;;;5093654;28;19900;-71
2022/02/06 06:08:06;;;;;;;;;;;;;;;;;;5089908;28;19911;-71
2022/02/06 06:10:32;;;;;;;;;;;;;;;;;;5088112;28;19998;-71
2022/02/06 06:13:00;;;;;;;;;;;;;;;;;;5088209;28;20237;-71
2022/02/06 06:15:27;;;;;;;;;;;;;;;;;;5087905;28;20410;-71
2022/02/06 06:17:55;;;;;;;;;;;;;;;;;;5090876;28;20002;-71
2022/02/06 06:20:24;;;;;;;;;;;;;;;;;;5086584;28;20338;-71
2022/02/06 06:22:53;;;;;;;;;;;;;;;;;;5073045;28;20369;-71
2022/02/06 06:25:19;;;;;;;;;;;;;;;;;;5072905;28;19916;-71
2022/02/06 06:27:45;;;;;;;;;;;;;;;;;;5073135;28;19961;-70
2022/02/06 06:30:11;;;;;;;;;;;;;;;;;;5069154;28;19919;-71
2022/02/06 06:32:39;;;;;;;;;;;;;;;;;;5068778;28;19963;-70
2022/02/06 06:35:06;;;;;;;;;;;;;;;;;;5067505;28;19912;-71
2022/02/06 06:37:32;;;;;;;;;;;;;;;;;;5067732;28;19912;-71
2022/02/06 06:39:58;;;;;;;;;;;;;;;;;;5070282;28;19943;-71
2022/02/06 06:42:25;;;;;;;;;;;;;;;;;;5073774;28;20371;-71
2022/02/06 06:44:51;;;;;;;;;;;;;;;;;;5093062;28;19904;-71
2022/02/06 06:47:17;;;;;;;;;;;;;;;;;;5092647;28;19911;-72
2022/02/06 06:49:43;;;;;;;;;;;;;;;;;;5092662;28;20012;-71
2022/02/06 06:52:09;;;;;;;;;;;;;;;;;;5090190;28;19911;-71
2022/02/06 06:54:40;;;;;;;;;;;;;;;;;;5067913;28;19955;-71
2022/02/06 07:02:19;;;;;;;;;;;;;;;;;;5070112;28;20423;-71
2022/02/06 07:04:46;;;;;;;;;;;;;;;;;;5072641;28;19911;-71
2022/02/06 07:07:12;;;;;;;;;;;;;;;;;;5072635;28;19908;-71
2022/02/06 07:09:38;;;;;;;;;;;;;;;;;;5072303;28;19913;-70
2022/02/06 07:12:06;;;;;;;;;;;;;;;;;;5072541;28;19910;-71
2022/02/06 07:14:32;;;;;;;;;;;;;;;;;;5070898;28;19969;-70
2022/02/06 07:16:58;;;;;;;;;;;;;;;;;;5087564;28;19908;-71
2022/02/06 07:19:24;;;;;;;;;;;;;;;;;;5088777;28;19967;-70
2022/02/06 07:21:51;;;;;;;;;;;;;;;;;;5091403;28;19926;-71
2022/02/06 07:24:18;;;;;;;;;;;;;;;;;;5093810;28;20239;-70
2022/02/06 07:26:47;;;;;;;;;;;;;;;;;;5096515;28;19916;-71
2022/02/06 07:29:16;;;;;;;;;;;;;;;;;;5096072;28;19912;-71
2022/02/06 07:31:45;;;;;;;;;;;;;;;;;;5096602;28;19911;-71
2022/02/06 07:34:11;;;;;;;;;;;;;;;;;;5096380;28;19908;-71
2022/02/06 07:36:37;;;;;;;;;;;;;;;;;;5093067;28;19905;-71
2022/02/06 07:39:03;;;;;;;;;;;;;;;;;;5090254;28;19911;-70
2022/02/06 07:41:30;;;;;;;;;;;;;;;;;;5091128;28;20351;-71
2022/02/06 07:43:56;;;;;;;;;;;;;;;;;;5090928;28;20390;-70
2022/02/06 07:46:29;;;;;;;;;;;;;;;;;;5092601;28;19904;-70
2022/02/06 07:48:59;;;;;;;;;;;;;;;;;;5096030;28;20346;-70
2022/02/06 07:51:26;;;;;;;;;;;;;;;;;;5096201;28;19908;-70
2022/02/06 07:53:52;;;;;;;;;;;;;;;;;;5096057;28;19904;-71
2022/02/06 07:56:18;;;;;;;;;;;;;;;;;;5080083;28;19931;-71
2022/02/06 07:58:44;;;;;;;;;;;;;;;;;;5072911;28;19966;-70
2022/02/06 08:01:11;;;;;;;;;;;;;;;;;;5070226;28;19915;-71
2022/02/06 08:03:37;;;;;;;;;;;;;;;;;;5070474;28;19947;-71
2022/02/06 08:06:03;;;;;;;;;;;;;;;;;;5070356;28;19983;-70
2022/02/06 08:08:29;;;;;;;;;;;;;;;;;;5072050;28;19908;-71
2022/02/06 08:11:00;;;;;;;;;;;;;;;;;;5075582;28;19973;-71
2022/02/06 08:13:39;;;;;;;;;;;;;;;;;;5075415;28;19900;-70
2022/02/06 08:16:05;;;;;;;;;;;;;;;;;;5087632;28;19912;-71
2022/02/06 08:18:31;;;;;;;;;;;;;;;;;;5094729;28;19943;-71
2022/02/06 08:20:57;;;;;;;;;;;;;;;;;;5073477;28;19924;-70
2022/02/06 08:23:24;;;;;;;;;;;;;;;;;;5070040;28;19915;-71
2022/02/06 08:25:50;;;;;;;;;;;;;;;;;;5069900;28;19954;-71
2022/02/06 08:28:16;;;;;;;;;;;;;;;;;;5069843;28;19904;-71
2022/02/06 08:30:43;;;;;;;;;;;;;;;;;;5070534;28;19912;-70
2022/02/06 08:33:09;;;;;;;;;;;;;;;;;;5075053;28;19953;-71
2022/02/06 08:35:35;;;;;;;;;;;;;;;;;;5075806;28;19915;-71
2022/02/06 08:38:02;;;;;;;;;;;;;;;;;;5075113;28;19915;-71
2022/02/06 08:40:28;;;;;;;;;;;;;;;;;;5075110;28;19995;-70
2022/02/06 08:42:54;;;;;;;;;;;;;;;;;;5072921;28;20343;-71
2022/02/06 08:45:20;;;;;;;;;;;;;;;;;;5069240;28;19994;-71
2022/02/06 08:47:47;;;;;;;;;;;;;;;;;;5069743;28;19908;-70
2022/02/06 08:50:13;;;;;;;;;;;;;;;;;;5069582;28;19962;-71
2022/02/06 08:52:39;;;;;;;;;;;;;;;;;;5070697;28;19905;-70
2022/02/06 08:55:08;;;;;;;;;;;;;;;;;;5078533;28;19908;-70
2022/02/06 08:57:36;;;;;;;;;;;;;;;;;;5074658;28;20248;-70
2022/02/06 09:00:02;;;;;;;;;;;;;;;;;;5074521;28;20259;-71
2022/02/06 09:02:28;;;;;;;;;;;;;;;;;;5074345;28;20278;-71
2022/02/06 09:04:54;;;;;;;;;;;;;;;;;;5072741;28;20687;-71
2022/02/06 09:07:21;;;;;;;;;;;;;;;;;;5069274;28;19987;-70
2022/02/06 09:09:50;;;;;;;;;;;;;;;;;;5068885;28;19912;-71
2022/02/06 09:12:16;;;;;;;;;;;;;;;;;;5069219;28;19904;-70
2022/02/06 09:14:43;;;;;;;;;;;;;;;;;;5070184;28;19908;-70
2022/02/06 09:17:09;;;;;;;;;;;;;;;;;;5084957;28;20273;-70
2022/02/06 09:19:36;;;;;;;;;;;;;;;;;;5094579;28;19904;-70
2022/02/06 09:22:03;;;;;;;;;;;;;;;;;;5094440;28;19953;-70
2022/02/06 09:24:29;;;;;;;;;;;;;;;;;;5094361;28;19993;-71
2022/02/06 09:26:55;;;;;;;;;;;;;;;;;;5092836;28;19922;-70
2022/02/06 09:29:21;;;;;;;;;;;;;;;;;;5087065;28;19916;-70
2022/02/06 09:31:50;;;;;;;;;;;;;;;;;;5088931;28;19904;-71
2022/02/06 09:36:43;;;;;;;;;;;;;;;;;;5089719;28;19962;-70
2022/02/06 09:39:09;;;;;;;;;;;;;;;;;;5083072;28;20237;-70
2022/02/06 09:41:35;;;;;;;;;;;;;;;;;;5073588;28;19908;-70
2022/02/06 09:44:02;;;;;;;;;;;;;;;;;;5073553;28;19991;-71
2022/02/06 09:46:28;;;;;;;;;;;;;;;;;;5073629;28;19912;-71
2022/02/06 09:48:54;;;;;;;;;;;;;;;;;;5072393;28;19912;-71
2022/02/06 09:51:20;;;;;;;;;;;;;;;;;;5068387;28;19908;-70
2022/02/06 09:53:47;;;;;;;;;;;;;;;;;;5068387;28;20091;-71
2022/02/06 09:56:13;;;;;;;;;;;;;;;;;;5068360;28;19911;-71
2022/02/06 09:58:57;;;;;;;;;;;;;;;;;;5068301;28;20339;-71
2022/02/06 10:01:24;;;;;;;;;;;;;;;;;;5075246;28;19916;-70
2022/02/06 10:03:50;;;;;;;;;;;;;;;;;;5074484;28;19915;-70
2022/02/06 10:06:16;;;;;;;;;;;;;;;;;;5073233;28;20258;-69
2022/02/06 10:08:42;;;;;;;;;;;;;;;;;;5073202;28;19913;-69
2022/02/06 10:11:09;;;;;;;;;;;;;;;;;;5072236;28;19904;-69
2022/02/06 10:13:37;;;;;;;;;;;;;;;;;;5067989;28;19946;-69
2022/02/06 10:16:03;;;;;;;;;;;;;;;;;;5067482;28;19927;-69
2022/02/06 10:18:30;;;;;;;;;;;;;;;;;;5068131;28;20366;-70
2022/02/06 10:20:56;;;;;;;;;;;;;;;;;;5068105;28;19954;-69
2022/02/06 10:23:30;;;;;;;;;;;;;;;;;;5079888;28;19947;-69
2022/02/06 10:26:06;;;;;;;;;;;;;;;;;;5093184;28;19911;-69
2022/02/06 10:30:58;;;;;;;;;;;;;;;;;;5093097;28;19904;-69
2022/02/06 10:33:25;;;;;;;;;;;;;;;;;;5092030;28;19952;-69
2022/02/06 10:35:51;;;;;;;;;;;;;;;;;;5087785;28;19912;-69
2022/02/06 10:38:17;;;;;;;;;;;;;;;;;;5087783;28;19904;-69
2022/02/06 10:40:43;;;;;;;;;;;;;;;;;;5087953;28;19904;-69
2022/02/06 10:43:10;;;;;;;;;;;;;;;;;;5087982;28;19908;-69
2022/02/06 10:45:37;;;;;;;;;;;;;;;;;;5084503;28;20412;-69
2022/02/06 10:48:04;;;;;;;;;;;;;;;;;;5072995;28;20699;-69
2022/02/06 10:50:30;;;;;;;;;;;;;;;;;;5072839;28;19967;-69
2022/02/06 10:52:56;;;;;;;;;;;;;;;;;;5072801;28;20263;-69
2022/02/06 10:55:24;;;;;;;;;;;;;;;;;;5071429;28;20489;-69
2022/02/06 10:57:50;;;;;;;;;;;;;;;;;;5067453;28;19905;-69
2022/02/06 11:00:16;;;;;;;;;;;;;;;;;;5067056;28;19911;-70
2022/02/06 11:02:57;;;;;;;;;;;;;;;;;;5067245;28;19912;-69
2022/02/06 11:05:32;;;;;;;;;;;;;;;;;;5067691;28;20434;-69
2022/02/06 11:08:00;;;;;;;;;;;;;;;;;;5073452;28;20407;-69
2022/02/06 11:10:27;;;;;;;;;;;;;;;;;;5072348;28;20355;-69
2022/02/06 11:12:53;;;;;;;;;;;;;;;;;;5072252;28;19911;-69
2022/02/06 11:15:19;;;;;;;;;;;;;;;;;;5072660;28;20027;-69
2022/02/06 11:17:46;;;;;;;;;;;;;;;;;;5071355;28;19904;-70
2022/02/06 11:20:12;;;;;;;;;;;;;;;;;;5067125;28;19908;-69
2022/02/06 11:22:39;;;;;;;;;;;;;;;;;;5067202;28;19904;-70
2022/02/06 11:25:07;;;;;;;;;;;;;;;;;;5066923;28;19908;-69
2022/02/06 11:27:33;;;;;;;;;;;;;;;;;;5069110;28;19923;-69
2022/02/06 11:29:59;;;;;;;;;;;;;;;;;;5080366;28;19923;-69
2022/02/06 11:32:28;;;;;;;;;;;;;;;;;;5087481;28;19996;-69
2022/02/06 11:34:56;;;;;;;;;;;;;;;;;;5092444;28;20364;-69
2022/02/06 11:45:37;;;;;;;;;;;;;;;;;;5086797;28;19926;-69
2022/02/06 11:48:04;;;;;;;;;;;;;;;;;;5087140;28;19904;-69
2022/02/06 11:50:31;;;;;;;;;;;;;;;;;;5078313;28;19913;-69
2022/02/06 11:52:57;;;;;;;;;;;;;;;;;;5073186;28;19921;-69
2022/02/06 11:55:23;;;;;;;;;;;;;;;;;;5072150;28;19905;-69
2022/02/06 11:57:53;;;;;;;;;;;;;;;;;;5072533;28;20306;-69
2022/02/06 12:00:19;;;;;;;;;;;;;;;;;;5071678;28;19911;-69
2022/02/06 12:02:46;;;;;;;;;;;;;;;;;;5069448;28;19912;-69
2022/02/06 12:05:12;;;;;;;;;;;;;;;;;;5067633;28;19904;-69
2022/02/06 12:07:38;;;;;;;;;;;;;;;;;;5070199;28;19904;-69
2022/02/06 12:10:04;;;;;;;;;;;;;;;;;;5070367;28;20007;-69
2022/02/06 12:12:30;;;;;;;;;;;;;;;;;;5071983;28;20001;-69
2022/02/06 12:14:57;;;;;;;;;;;;;;;;;;5094192;28;19969;-69
2022/02/06 12:17:45;;;;;;;;;;;;;;;;;;5095109;28;20274;-69
2022/02/06 12:20:11;;;;;;;;;;;;;;;;;;5095711;28;19904;-69
2022/02/06 12:22:38;;;;;;;;;;;;;;;;;;5095515;28;20429;-69
2022/02/06 12:25:04;;;;;;;;;;;;;;;;;;5092761;28;19957;-69
2022/02/06 12:27:31;;;;;;;;;;;;;;;;;;5089704;28;19918;-69
2022/02/06 12:29:57;;;;;;;;;;;;;;;;;;5090063;28;19922;-69
2022/02/06 12:32:23;;;;;;;;;;;;;;;;;;5089956;28;19912;-69
2022/02/06 12:37:34;;;;;;;;;;;;;;;;;;5075095;28;19927;-69
2022/02/06 12:40:00;;;;;;;;;;;;;;;;;;5074456;28;19943;-69
2022/02/06 12:42:27;;;;;;;;;;;;;;;;;;5074971;28;19904;-69
2022/02/06 12:44:53;;;;;;;;;;;;;;;;;;5075014;28;20427;-69
2022/02/06 12:47:19;;;;;;;;;;;;;;;;;;5072011;28;19958;-69
2022/02/06 12:49:46;;;;;;;;;;;;;;;;;;5069391;28;19913;-69
2022/02/06 12:52:13;;;;;;;;;;;;;;;;;;5070415;28;19912;-69
2022/02/06 12:54:39;;;;;;;;;;;;;;;;;;5069033;28;19908;-69
2022/02/06 12:57:05;;;;;;;;;;;;;;;;;;5071842;28;19995;-69
2022/02/06 12:59:33;;;;;;;;;;;;;;;;;;5074589;28;19952;-69
2022/02/06 13:01:59;;;;;;;;;;;;;;;;;;5074618;28;20247;-69
2022/02/06 13:04:30;;;;;;;;;;;;;;;;;;5074553;28;20255;-69
2022/02/06 13:07:02;;;;;;;;;;;;;;;;;;5074242;28;19908;-69
2022/02/06 13:09:30;;;;;;;;;;;;;;;;;;5071137;28;20313;-69
2022/02/06 13:12:02;;;;;;;;;;;;;;;;;;5070360;28;19960;-71
2022/02/06 13:14:41;;;;;;;;;;;;;;;;;;5089208;28;19926;-71
2022/02/06 13:17:21;;;;;;;;;;;;;;;;;;5088667;28;19908;-71
2022/02/06 13:33:00;;;;;;;;;;;;;;;;;;5088845;28;20002;-71
2022/02/06 13:38:01;;;;;;;;;;;;;;;;;;5089096;28;20720;-70
2022/02/06 13:40:32;;;;;;;;;;;;;;;;;;5088636;28;20263;-70
2022/02/06 13:42:58;;;;;;;;;;;;;;;;;;5092253;28;19907;-70
2022/02/06 13:45:26;;;;;;;;;;;;;;;;;;5094004;28;20350;-70
2022/02/06 13:47:55;;;;;;;;;;;;;;;;;;5093278;28;19924;-70
2022/02/06 13:50:21;;;;;;;;;;;;;;;;;;5093814;28;19919;-70
2022/02/06 13:52:48;;;;;;;;;;;;;;;;;;5092966;28;19904;-71
2022/02/06 13:55:14;;;;;;;;;;;;;;;;;;5088534;28;19904;-71
2022/02/06 13:57:40;;;;;;;;;;;;;;;;;;5088773;28;20249;-71
2022/02/06 14:00:06;;;;;;;;;;;;;;;;;;5088346;28;19983;-70
2022/02/06 14:02:33;;;;;;;;;;;;;;;;;;5088423;28;19904;-71
2022/02/06 14:04:59;;;;;;;;;;;;;;;;;;5088529;28;19955;-71
2022/02/06 14:07:26;;;;;;;;;;;;;;;;;;5073445;28;19908;-71
2022/02/06 14:10:01;;;;;;;;;;;;;;;;;;5055234;28;20274;-71
2022/02/06 14:12:27;;;;;;;;;;;;;;;;;;5073359;28;20414;-71
2022/02/06 14:14:53;;;;;;;;;;;;;;;;;;5072119;28;20000;-71
2022/02/06 14:17:19;;;;;;;;;;;;;;;;;;5067604;28;19911;-71
2022/02/06 14:19:47;;;;;;;;;;;;;;;;;;5067952;28;19904;-71
2022/02/06 14:22:14;;;;;;;;;;;;;;;;;;5067776;28;20103;-71
2022/02/06 14:24:41;;;;;;;;;;;;;;;;;;5067965;28;19905;-71
2022/02/06 14:27:08;;;;;;;;;;;;;;;;;;5083446;28;19912;-71
2022/02/06 14:29:34;;;;;;;;;;;;;;;;;;5092188;28;19912;-71
2022/02/06 14:32:00;;;;;;;;;;;;;;;;;;5092670;28;19904;-71
2022/02/06 14:34:26;;;;;;;;;;;;;;;;;;5093222;28;19904;-71
2022/02/06 14:36:53;;;;;;;;;;;;;;;;;;5092618;28;19978;-71
2022/02/06 14:39:22;;;;;;;;;;;;;;;;;;5087822;28;19935;-71
2022/02/06 14:41:59;;;;;;;;;;;;;;;;;;5087970;28;19904;-71
2022/02/06 14:44:26;;;;;;;;;;;;;;;;;;5087563;28;20278;-71
2022/02/06 14:46:52;;;;;;;;;;;;;;;;;;5078814;28;19916;-71
2022/02/06 14:49:19;;;;;;;;;;;;;;;;;;5072783;28;19922;-72
2022/02/06 14:51:47;;;;;;;;;;;;;;;;;;5072941;28;19904;-71
2022/02/06 14:54:20;;;;;;;;;;;;;;;;;;5072724;28;19959;-72
2022/02/06 14:56:48;;;;;;;;;;;;;;;;;;5072639;28;19991;-71
2022/02/06 14:59:15;;;;;;;;;;;;;;;;;;5071085;28;20373;-71
2022/02/06 15:01:42;;;;;;;;;;;;;;;;;;5067465;28;19904;-71
2022/02/06 15:04:10;;;;;;;;;;;;;;;;;;5067486;28;19958;-71
2022/02/06 15:06:36;;;;;;;;;;;;;;;;;;5067290;28;19905;-71
2022/02/06 15:09:03;;;;;;;;;;;;;;;;;;5069656;28;20398;-71
2022/02/06 15:11:29;;;;;;;;;;;;;;;;;;5084780;28;19934;-71
2022/02/06 15:13:55;;;;;;;;;;;;;;;;;;5092343;28;20255;-71
2022/02/06 15:16:26;;;;;;;;;;;;;;;;;;5092729;28;20365;-72
2022/02/06 15:19:12;;;;;;;;;;;;;;;;;;5092753;28;19912;-71
2022/02/06 15:21:38;;;;;;;;;;;;;;;;;;5090765;28;19904;-71
2022/02/06 15:24:04;;;;;;;;;;;;;;;;;;5086911;28;19905;-71
2022/02/06 15:26:31;;;;;;;;;;;;;;;;;;5087388;28;20022;-71
2022/02/06 15:28:57;;;;;;;;;;;;;;;;;;5081331;28;19920;-72
2022/02/06 15:31:23;;;;;;;;;;;;;;;;;;5067983;28;19979;-71
2022/02/06 15:33:51;;;;;;;;;;;;;;;;;;5072384;28;19940;-71
2022/02/06 15:36:17;;;;;;;;;;;;;;;;;;5072352;28;20351;-71
2022/02/06 15:38:45;;;;;;;;;;;;;;;;;;5072109;28;20354;-71
2022/02/06 15:41:14;;;;;;;;;;;;;;;;;;5074392;28;19908;-71
2022/02/06 15:43:40;;;;;;;;;;;;;;;;;;5074707;28;20235;-72
2022/02/06 15:46:07;;;;;;;;;;;;;;;;;;5070738;28;20604;-72
2022/02/06 15:48:33;;;;;;;;;;;;;;;;;;5070618;28;19904;-71
2022/02/06 15:50:59;;;;;;;;;;;;;;;;;;5072611;28;19985;-72
2022/02/06 15:53:25;;;;;;;;;;;;;;;;;;5091594;28;19904;-71
2022/02/06 15:55:52;;;;;;;;;;;;;;;;;;5095482;28;19911;-71
2022/02/06 15:58:18;;;;;;;;;;;;;;;;;;5095946;28;19947;-71
2022/02/06 16:00:44;;;;;;;;;;;;;;;;;;5096044;28;19911;-71
2022/02/06 16:03:10;;;;;;;;;;;;;;;;;;5096088;28;20414;-71
2022/02/06 16:05:36;;;;;;;;;;;;;;;;;;5094649;28;20278;-72
2022/02/06 16:08:03;;;;;;;;;;;;;;;;;;5085997;28;19915;-72
2022/02/06 16:10:29;;;;;;;;;;;;;;;;;;5069981;28;19916;-71
2022/02/06 16:12:56;;;;;;;;;;;;;;;;;;5070171;28;19965;-71
2022/02/06 16:15:22;;;;;;;;;;;;;;;;;;5070518;28;19904;-72
2022/02/06 16:17:48;;;;;;;;;;;;;;;;;;5075431;28;20429;-71
2022/02/06 16:20:14;;;;;;;;;;;;;;;;;;5075490;28;19908;-72
2022/02/06 16:22:41;;;;;;;;;;;;;;;;;;5079897;28;19912;-71
2022/02/06 16:25:07;;;;;;;;;;;;;;;;;;5082629;28;20362;-72
2022/02/06 16:27:33;;;;;;;;;;;;;;;;;;5074250;28;19916;-71
2022/02/06 16:29:59;;;;;;;;;;;;;;;;;;5089253;28;19923;-71
2022/02/06 16:32:26;;;;;;;;;;;;;;;;;;5090243;28;19939;-71
2022/02/06 16:34:52;;;;;;;;;;;;;;;;;;5090059;28;20343;-72
2022/02/06 16:37:18;;;;;;;;;;;;;;;;;;5078316;28;19959;-72
2022/02/06 16:39:45;;;;;;;;;;;;;;;;;;5075156;28;19966;-71
2022/02/06 16:42:11;;;;;;;;;;;;;;;;;;5075440;28;19943;-72
2022/02/06 16:44:37;;;;;;;;;;;;;;;;;;5074927;28;20267;-72
2022/02/06 16:47:03;;;;;;;;;;;;;;;;;;5074699;28;20369;-72
2022/02/06 16:49:30;;;;;;;;;;;;;;;;;;5074828;28;19963;-72
2022/02/06 16:51:56;;;;;;;;;;;;;;;;;;5068567;28;19905;-71
2022/02/06 16:54:22;;;;;;;;;;;;;;;;;;5069555;28;19965;-71
2022/02/06 16:56:49;;;;;;;;;;;;;;;;;;5069598;28;19905;-71
2022/02/06 16:59:15;;;;;;;;;;;;;;;;;;5068989;28;19991;-71
2022/02/06 17:01:41;;;;;;;;;;;;;;;;;;5087753;28;20437;-72
2022/02/06 17:04:07;;;;;;;;;;;;;;;;;;5094608;28;19939;-72
2022/02/06 17:06:34;;;;;;;;;;;;;;;;;;5092902;28;19915;-72
2022/02/06 17:09:00;;;;;;;;;;;;;;;;;;5094621;28;19919;-71
2022/02/06 17:11:26;;;;;;;;;;;;;;;;;;5092696;28;19916;-72
2022/02/06 17:13:52;;;;;;;;;;;;;;;;;;5077824;28;20072;-72
2022/02/06 17:16:19;;;;;;;;;;;;;;;;;;5089241;28;19904;-72
2022/02/06 17:18:45;;;;;;;;;;;;;;;;;;5075910;28;19915;-72
2022/02/06 17:21:11;;;;;;;;;;;;;;;;;;5068816;28;20331;-72
2022/02/06 17:23:39;;;;;;;;;;;;;;;;;;5073053;28;19904;-72
2022/02/06 17:26:06;;;;;;;;;;;;;;;;;;5074105;28;20263;-72
2022/02/06 17:28:33;;;;;;;;;;;;;;;;;;5073896;28;20406;-72
2022/02/06 17:30:59;;;;;;;;;;;;;;;;;;5073621;28;19966;-72
2022/02/06 17:33:25;;;;;;;;;;;;;;;;;;5073998;28;19930;-72
2022/02/06 17:35:51;;;;;;;;;;;;;;;;;;5069067;28;19908;-72
2022/02/06 17:38:22;;;;;;;;;;;;;;;;;;5068286;28;19904;-72
2022/02/06 17:40:48;;;;;;;;;;;;;;;;;;5068511;28;19908;-72
2022/02/06 17:43:14;;;;;;;;;;;;;;;;;;5068251;28;19987;-72
2022/02/06 17:45:41;;;;;;;;;;;;;;;;;;5072104;28;19905;-72
2022/02/06 17:48:08;;;;;;;;;;;;;;;;;;5073628;28;19909;-72
2022/02/06 17:50:34;;;;;;;;;;;;;;;;;;5073595;28;20447;-72
2022/02/06 17:53:00;;;;;;;;;;;;;;;;;;5073651;28;20301;-72
2022/02/06 17:55:26;;;;;;;;;;;;;;;;;;5073474;28;19912;-72
2022/02/06 17:57:53;;;;;;;;;;;;;;;;;;5069057;28;20316;-72
2022/02/06 18:00:19;;;;;;;;;;;;;;;;;;5068197;28;19936;-73
2022/02/06 18:02:45;;;;;;;;;;;;;;;;;;5067588;28;19904;-72
2022/02/06 18:05:12;;;;;;;;;;;;;;;;;;5067996;28;19923;-72
2022/02/06 18:07:38;;;;;;;;;;;;;;;;;;5077996;28;19994;-72
2022/02/06 18:10:05;;;;;;;;;;;;;;;;;;5093487;28;19923;-72
2022/02/06 18:12:31;;;;;;;;;;;;;;;;;;5093221;28;20307;-72
2022/02/06 18:14:57;;;;;;;;;;;;;;;;;;5093409;28;20350;-72
2022/02/06 18:17:24;;;;;;;;;;;;;;;;;;5092829;28;20003;-72
2022/02/06 18:19:50;;;;;;;;;;;;;;;;;;5089528;28;19904;-72
2022/02/06 18:22:16;;;;;;;;;;;;;;;;;;5088014;28;19911;-72
2022/02/06 18:24:43;;;;;;;;;;;;;;;;;;5087646;28;20258;-73
2022/02/06 18:27:09;;;;;;;;;;;;;;;;;;5087740;28;20395;-72
2022/02/06 18:29:35;;;;;;;;;;;;;;;;;;5086935;28;19916;-73
2022/02/06 18:32:02;;;;;;;;;;;;;;;;;;5072991;28;19916;-73
2022/02/06 18:34:28;;;;;;;;;;;;;;;;;;5072594;28;19904;-72
2022/02/06 18:36:54;;;;;;;;;;;;;;;;;;5072985;28;19999;-72
2022/02/06 18:39:20;;;;;;;;;;;;;;;;;;5073029;28;19993;-72
2022/02/06 18:41:47;;;;;;;;;;;;;;;;;;5069671;28;19927;-72
2022/02/06 18:44:13;;;;;;;;;;;;;;;;;;5067674;28;20360;-72
2022/02/06 18:46:39;;;;;;;;;;;;;;;;;;5079606;28;19908;-72
2022/02/06 18:49:07;;;;;;;;;;;;;;;;;;5067254;28;19913;-72
2022/02/06 18:51:37;;;;;;;;;;;;;;;;;;5080529;28;20350;-72
2022/02/06 18:54:03;;;;;;;;;;;;;;;;;;5092818;28;19990;-73
2022/02/06 18:56:29;;;;;;;;;;;;;;;;;;5092744;28;19904;-72
2022/02/06 18:58:58;;;;;;;;;;;;;;;;;;5092847;28;19958;-72
2022/02/06 19:01:24;;;;;;;;;;;;;;;;;;5092831;28;19904;-72
2022/02/06 19:03:50;;;;;;;;;;;;;;;;;;5078389;28;19904;-72
2022/02/06 19:06:19;;;;;;;;;;;;;;;;;;5078772;28;20280;-72
2022/02/06 19:08:46;;;;;;;;;;;;;;;;;;5087256;28;20266;-72
2022/02/06 19:11:23;;;;;;;;;;;;;;;;;;5087579;28;20000;-72
2022/02/06 19:13:49;;;;;;;;;;;;;;;;;;5089958;28;19911;-72
2022/02/06 19:16:15;;;;;;;;;;;;;;;;;;5095451;28;20004;-72
2022/02/06 19:18:42;;;;;;;;;;;;;;;;;;5096469;28;19904;-72
2022/02/06 19:21:11;;;;;;;;;;;;;;;;;;5096538;28;19949;-72
2022/02/06 19:23:37;;;;;;;;;;;;;;;;;;5096905;28;20520;-73